Time;durP1;ratioP1;P1;durP2;ratioP2;P2;SDS_P1;SDS_P2;PMS_P1;PMS_P2;Temp;Humidity;BMP_temperature;BMP_pressure;BME280_temperature;BME280_humidity;BME280_pressure;Samples;Min_cycle;Max_cycle;Signal;HPM_P1;HPM_P2
2022/09/20 00:00:10;;;;;;;1.35;0.85;;;;;;;;;;4788903;29;20031;-71
2022/09/20 00:02:36;;;;;;;2.28;0.57;;;;;;;;;;4789204;30;20034;-71
2022/09/20 00:05:03;;;;;;;2.05;0.63;;;;;;;;;;4788948;30;20034;-71
2022/09/20 00:07:29;;;;;;;1.90;0.50;;;;;;;;;;4789038;29;20034;-71
2022/09/20 00:09:56;;;;;;;1.38;0.55;;;;;;;;;;4788761;30;20027;-71
2022/09/20 00:12:22;;;;;;;2.33;0.68;;;;;;;;;;4788059;30;20033;-71
2022/09/20 00:14:49;;;;;;;1.40;0.70;;;;;;;;;;4787517;29;20043;-71
2022/09/20 00:17:15;;;;;;;1.08;0.70;;;;;;;;;;4788517;30;20501;-71
2022/09/20 00:19:41;;;;;;;2.67;0.80;;;;;;;;;;4788924;30;20037;-71
2022/09/20 00:22:08;;;;;;;1.75;0.73;;;;;;;;;;4788890;30;20031;-71
2022/09/20 00:24:35;;;;;;;0.80;0.50;;;;;;;;;;4788616;30;20114;-71
2022/09/20 00:27:02;;;;;;;1.52;0.70;;;;;;;;;;4788103;30;20447;-71
2022/09/20 00:29:28;;;;;;;0.77;0.73;;;;;;;;;;4788446;30;20401;-71
2022/09/20 00:31:55;;;;;;;0.95;0.50;;;;;;;;;;4788215;29;20092;-71
2022/09/20 00:37:06;;;;;;;0.73;0.50;;;;;;;;;;4788517;30;20043;-71
2022/09/20 00:39:32;;;;;;;1.63;0.80;;;;;;;;;;4786881;30;20410;-71
2022/09/20 00:41:58;;;;;;;2.22;0.70;;;;;;;;;;4788166;30;20035;-71
2022/09/20 00:45:00;;;;;;;1.40;0.57;;;;;;;;;;4788240;30;20451;-71
2022/09/20 00:47:38;;;;;;;2.70;0.77;;;;;;;;;;4768208;30;20453;-71
2022/09/20 00:50:10;;;;;;;2.20;0.63;;;;;;;;;;4768074;30;20061;-71
2022/09/20 00:52:37;;;;;;;2.30;0.70;;;;;;;;;;4767939;30;20043;-71
2022/09/20 00:55:07;;;;;;;3.20;1.00;;;;;;;;;;4767689;30;20401;-71
2022/09/20 00:57:35;;;;;;;1.38;0.60;;;;;;;;;;4768106;30;20042;-71
2022/09/20 01:00:06;;;;;;;1.73;0.80;;;;;;;;;;4768214;30;20035;-71
2022/09/20 01:02:34;;;;;;;1.58;0.70;;;;;;;;;;4752912;30;20051;-71
2022/09/20 01:05:00;;;;;;;1.52;0.70;;;;;;;;;;4768151;30;20052;-71
2022/09/20 01:07:27;;;;;;;1.17;0.70;;;;;;;;;;4767858;30;20060;-71
2022/09/20 01:09:54;;;;;;;1.38;0.70;;;;;;;;;;4767545;30;20032;-71
2022/09/20 01:12:22;;;;;;;1.45;0.60;;;;;;;;;;4753958;30;20066;-71
2022/09/20 01:14:49;;;;;;;0.88;0.68;;;;;;;;;;4749985;30;20054;-71
2022/09/20 01:17:18;;;;;;;1.45;0.82;;;;;;;;;;4749947;30;20036;-71
2022/09/20 01:19:44;;;;;;;0.90;0.52;;;;;;;;;;4749367;30;20040;-71
2022/09/20 01:22:27;;;;;;;2.58;0.70;;;;;;;;;;4766161;30;20036;-71
2022/09/20 01:24:53;;;;;;;1.67;1.20;;;;;;;;;;4769405;30;20032;-71
2022/09/20 01:27:42;;;;;;;1.48;0.60;;;;;;;;;;4769653;30;20368;-71
2022/09/20 01:30:11;;;;;;;1.75;0.80;;;;;;;;;;4766970;30;20046;-71
2022/09/20 01:32:43;;;;;;;0.65;0.57;;;;;;;;;;4776986;30;20068;-71
2022/09/20 01:35:10;;;;;;;2.67;0.93;;;;;;;;;;4787313;29;20498;-71
2022/09/20 01:37:46;;;;;;;1.75;0.70;;;;;;;;;;4787169;30;20027;-71
2022/09/20 01:40:17;;;;;;;2.72;0.90;;;;;;;;;;4787427;29;20035;-71
2022/09/20 01:42:43;;;;;;;;;;;;;;;;;;4787752;30;20371;-71
2022/09/20 01:45:12;;;;;;;1.80;0.57;;;;;;;;;;4787565;30;19913;-71
2022/09/20 01:47:59;;;;;;;2.50;0.88;;;;;;;;;;4787358;30;20019;-71
2022/09/20 01:50:35;;;;;;;0.82;0.60;;;;;;;;;;4787159;30;20031;-71
2022/09/20 01:53:01;;;;;;;2.53;0.68;;;;;;;;;;4786929;30;20028;-71
2022/09/20 01:55:27;;;;;;;3.15;0.60;;;;;;;;;;4787176;30;20027;-71
2022/09/20 01:57:54;;;;;;;0.75;0.50;;;;;;;;;;4787341;30;20039;-71
2022/09/20 02:00:40;;;;;;;1.75;0.55;;;;;;;;;;4787354;30;20016;-71
2022/09/20 02:03:32;;;;;;;2.22;0.65;;;;;;;;;;4766959;30;20028;-71
2022/09/20 02:06:17;;;;;;;1.17;0.60;;;;;;;;;;4731692;30;20036;-71
2022/09/20 02:08:43;;;;;;;1.85;0.60;;;;;;;;;;4731956;30;20056;-71
2022/09/20 02:11:15;;;;;;;3.25;0.82;;;;;;;;;;4731372;30;20052;-71
2022/09/20 02:13:48;;;;;;;1.65;0.88;;;;;;;;;;4731489;30;20055;-71
2022/09/20 02:16:24;;;;;;;1.60;0.57;;;;;;;;;;4731526;30;20533;-71
2022/09/20 02:19:09;;;;;;;2.38;0.70;;;;;;;;;;4731897;30;20052;-71
2022/09/20 02:21:47;;;;;;;2.65;0.70;;;;;;;;;;4731316;30;20562;-71
2022/09/20 02:24:14;;;;;;;1.55;0.77;;;;;;;;;;4746317;30;20102;-73
2022/09/20 02:26:58;;;;;;;1.85;0.70;;;;;;;;;;4731580;30;20040;-73
2022/09/20 02:29:43;;;;;;;0.75;0.60;;;;;;;;;;4731623;30;20052;-73
2022/09/20 02:32:13;;;;;;;1.52;0.75;;;;;;;;;;4733293;30;20059;-73
2022/09/20 02:34:42;;;;;;;1.45;0.70;;;;;;;;;;4735150;30;20443;-73
2022/09/20 02:37:09;;;;;;;3.55;0.70;;;;;;;;;;4734580;30;20107;-73
2022/09/20 02:39:55;;;;;;;2.65;0.70;;;;;;;;;;4743719;30;20096;-73
2022/09/20 02:42:29;;;;;;;3.55;0.80;;;;;;;;;;4764277;30;20052;-73
2022/09/20 02:45:13;;;;;;;3.35;0.70;;;;;;;;;;4752448;30;20040;-73
2022/09/20 02:47:42;;;;;;;2.88;0.70;;;;;;;;;;4752470;30;20058;-73
2022/09/20 02:50:14;;;;;;;1.52;1.05;;;;;;;;;;4752275;30;20046;-73
2022/09/20 02:52:49;;;;;;;3.08;0.80;;;;;;;;;;4752425;30;20040;-73
2022/09/20 02:55:15;;;;;;;3.42;0.68;;;;;;;;;;4752278;30;20576;-73
2022/09/20 02:57:50;;;;;;;3.33;0.90;;;;;;;;;;4752547;30;20039;-73
2022/09/20 03:00:19;;;;;;;1.88;0.70;;;;;;;;;;4752084;30;20028;-73
2022/09/20 03:02:50;;;;;;;3.60;0.77;;;;;;;;;;4752137;30;20052;-73
2022/09/20 03:05:35;;;;;;;2.45;0.82;;;;;;;;;;4751796;30;20032;-73
2022/09/20 03:08:04;;;;;;;1.25;0.70;;;;;;;;;;4752121;30;20483;-73
2022/09/20 03:10:35;;;;;;;2.88;0.68;;;;;;;;;;4751953;30;20411;-73
2022/09/20 03:13:14;;;;;;;1.90;0.65;;;;;;;;;;4751868;30;20046;-73
2022/09/20 03:15:59;;;;;;;2.30;0.70;;;;;;;;;;4751921;30;20050;-73
2022/09/20 03:18:25;;;;;;;3.08;0.63;;;;;;;;;;4754738;30;20049;-73
2022/09/20 03:20:57;;;;;;;1.10;0.60;;;;;;;;;;4789307;30;20512;-73
2022/09/20 03:23:24;;;;;;;1.98;0.80;;;;;;;;;;4789647;29;20054;-73
2022/09/20 03:25:57;;;;;;;1.88;0.70;;;;;;;;;;4789490;30;20027;-73
2022/09/20 03:28:23;;;;;;;3.50;1.02;;;;;;;;;;4789476;30;20031;-73
2022/09/20 03:31:05;;;;;;;2.78;0.80;;;;;;;;;;4789471;29;20037;-73
2022/09/20 03:33:31;;;;;;;4.18;0.70;;;;;;;;;;4788966;30;20038;-72
2022/09/20 03:35:57;;;;;;;1.05;0.60;;;;;;;;;;4789355;29;20038;-73
2022/09/20 03:38:39;;;;;;;1.50;0.77;;;;;;;;;;4789311;30;20517;-73
2022/09/20 03:41:08;;;;;;;1.70;0.55;;;;;;;;;;4789155;29;20073;-73
2022/09/20 03:43:45;;;;;;;1.83;0.73;;;;;;;;;;4788946;29;20509;-73
2022/09/20 03:46:18;;;;;;;1.65;0.77;;;;;;;;;;4789209;30;20512;-73
2022/09/20 03:48:47;;;;;;;1.98;0.82;;;;;;;;;;4789122;29;20042;-73
2022/09/20 03:51:22;;;;;;;5.60;1.08;;;;;;;;;;4787929;30;20439;-73
2022/09/20 03:54:08;;;;;;;3.45;0.90;;;;;;;;;;4789027;30;20038;-73
2022/09/20 03:56:54;;;;;;;1.83;0.98;;;;;;;;;;4789224;30;20053;-73
2022/09/20 03:59:20;;;;;;;1.70;0.70;;;;;;;;;;4788907;30;20031;-73
2022/09/20 04:01:53;;;;;;;1.67;0.70;;;;;;;;;;4788867;30;20111;-73
2022/09/20 04:04:24;;;;;;;1.27;0.80;;;;;;;;;;4787295;30;20478;-73
2022/09/20 04:07:09;;;;;;;2.78;0.70;;;;;;;;;;4788896;30;20035;-73
2022/09/20 04:09:54;;;;;;;1.45;0.88;;;;;;;;;;4788880;30;20039;-73
2022/09/20 04:12:20;;;;;;;2.58;0.77;;;;;;;;;;4788452;30;20035;-73
2022/09/20 04:14:54;;;;;;;3.10;0.88;;;;;;;;;;4788845;29;20065;-73
2022/09/20 04:17:24;;;;;;;3.55;0.75;;;;;;;;;;4787424;30;20031;-73
2022/09/20 04:19:57;;;;;;;2.40;0.50;;;;;;;;;;4788944;30;20137;-73
2022/09/20 04:22:27;;;;;;;1.95;0.60;;;;;;;;;;4788537;29;20073;-73
2022/09/20 04:25:05;;;;;;;1.33;0.60;;;;;;;;;;4788754;29;20023;-73
2022/09/20 04:27:44;;;;;;;4.80;0.77;;;;;;;;;;4787270;29;20047;-73
2022/09/20 04:30:21;;;;;;;4.95;0.65;;;;;;;;;;4788792;30;20027;-73
2022/09/20 04:32:50;;;;;;;2.58;0.70;;;;;;;;;;4788009;30;20031;-72
2022/09/20 04:38:14;;;;;;;3.55;0.90;;;;;;;;;;4788436;30;20045;-73
2022/09/20 04:40:55;;;;;;;3.42;0.90;;;;;;;;;;4788175;30;20027;-73
2022/09/20 04:43:36;;;;;;;4.40;0.60;;;;;;;;;;4788466;29;20046;-73
2022/09/20 04:46:18;;;;;;;3.08;0.70;;;;;;;;;;4787868;30;20035;-73
2022/09/20 04:49:03;;;;;;;4.32;0.60;;;;;;;;;;4788371;30;20042;-73
2022/09/20 04:51:38;;;;;;;2.53;0.65;;;;;;;;;;4788360;30;20031;-73
2022/09/20 04:54:16;;;;;;;2.22;0.52;;;;;;;;;;4787502;29;20027;-73
2022/09/20 04:57:01;;;;;;;2.42;0.73;;;;;;;;;;4787994;29;20065;-73
2022/09/20 04:59:31;;;;;;;2.92;0.85;;;;;;;;;;4786820;30;20561;-72
2022/09/20 05:02:08;;;;;;;5.97;0.80;;;;;;;;;;4787407;29;20047;-73
2022/09/20 05:04:35;;;;;;;1.52;0.63;;;;;;;;;;4788073;30;20031;-73
2022/09/20 05:07:11;;;;;;;2.20;0.77;;;;;;;;;;4786757;30;20036;-73
2022/09/20 05:09:49;;;;;;;2.42;0.82;;;;;;;;;;4786610;30;20041;-73
2022/09/20 05:12:22;;;;;;;4.78;1.20;;;;;;;;;;4800539;29;20485;-73
2022/09/20 05:15:07;;;;;;;1.92;0.90;;;;;;;;;;4805399;29;20098;-72
2022/09/20 05:18:02;;;;;;;2.55;0.73;;;;;;;;;;4805684;29;20041;-73
2022/09/20 05:20:33;;;;;;;4.95;1.00;;;;;;;;;;4803352;29;20045;-73
2022/09/20 05:22:59;;;;;;;1.17;0.70;;;;;;;;;;4803452;29;20039;-73
2022/09/20 05:25:25;;;;;;;5.05;0.88;;;;;;;;;;4803402;29;20045;-72
2022/09/20 05:27:56;;;;;;;6.10;0.95;;;;;;;;;;4788335;29;20412;-73
2022/09/20 05:30:39;;;;;;;6.10;1.05;;;;;;;;;;4802854;29;20508;-72
2022/09/20 05:33:23;;;;;;;3.47;0.88;;;;;;;;;;4792207;29;20038;-73
2022/09/20 05:35:58;;;;;;;4.90;0.80;;;;;;;;;;4785631;30;20041;-73
2022/09/20 05:38:42;;;;;;;4.45;1.08;;;;;;;;;;4785299;30;20041;-73
2022/09/20 05:41:30;;;;;;;4.22;1.08;;;;;;;;;;4770269;30;20044;-72
2022/09/20 05:44:06;;;;;;;2.58;1.05;;;;;;;;;;4784784;30;20039;-73
2022/09/20 05:46:35;;;;;;;1.88;0.70;;;;;;;;;;4785070;30;20394;-73
2022/09/20 05:49:20;;;;;;;3.85;1.00;;;;;;;;;;4785568;30;20031;-73
2022/09/20 05:52:06;;;;;;;4.75;0.70;;;;;;;;;;4785183;30;20031;-73
2022/09/20 05:54:55;;;;;;;1.52;0.50;;;;;;;;;;4785261;30;20038;-73
2022/09/20 05:57:39;;;;;;;2.55;1.08;;;;;;;;;;4786375;30;20039;-73
2022/09/20 06:00:09;;;;;;;3.30;1.05;;;;;;;;;;4787073;30;20029;-73
2022/09/20 06:02:38;;;;;;;6.38;1.05;;;;;;;;;;4786896;30;20059;-73
2022/09/20 06:05:13;;;;;;;6.78;1.23;;;;;;;;;;4786832;30;20032;-73
2022/09/20 06:08:02;;;;;;;3.03;1.00;;;;;;;;;;4786912;30;20035;-72
2022/09/20 06:10:42;;;;;;;3.05;1.02;;;;;;;;;;4787136;30;20035;-73
2022/09/20 06:13:21;;;;;;;2.03;0.60;;;;;;;;;;4784542;29;20518;-76
2022/09/20 06:15:54;;;;;;;6.03;0.93;;;;;;;;;;4782410;29;20367;-73
2022/09/20 06:18:20;;;;;;;12.00;1.92;;;;;;;;;;4786229;29;20034;-73
2022/09/20 06:20:46;;;;;;;4.05;0.80;;;;;;;;;;4785267;30;20051;-73
2022/09/20 06:23:13;;;;;;;3.90;1.10;;;;;;;;;;4798719;29;20050;-73
2022/09/20 06:26:06;;;;;;;7.03;1.50;;;;;;;;;;4793887;29;20023;-73
2022/09/20 06:28:34;;;;;;;6.80;2.03;;;;;;;;;;4784415;29;20046;-71
2022/09/20 06:31:06;;;;;;;8.40;1.45;;;;;;;;;;4784705;30;20793;-73
2022/09/20 06:33:32;;;;;;;4.97;1.13;;;;;;;;;;4785985;29;20031;-73
2022/09/20 06:41:50;;;;;;;4.15;1.02;;;;;;;;;;4784662;29;20051;-72
2022/09/20 06:44:16;;;;;;;5.35;1.15;;;;;;;;;;4786256;29;20405;-73
2022/09/20 06:46:42;;;;;;;10.10;1.20;;;;;;;;;;4786324;30;20039;-73
2022/09/20 06:49:09;;;;;;;7.97;1.27;;;;;;;;;;4786150;30;20041;-73
2022/09/20 06:51:36;;;;;;;2.97;0.95;;;;;;;;;;4785534;29;20024;-71
2022/09/20 06:54:03;;;;;;;3.00;1.10;;;;;;;;;;4803414;29;20042;-71
2022/09/20 06:56:35;;;;;;;3.72;1.10;;;;;;;;;;4789810;29;20510;-71
2022/09/20 06:59:10;;;;;;;2.28;1.00;;;;;;;;;;4786394;30;20034;-71
2022/09/20 07:01:36;;;;;;;4.35;1.02;;;;;;;;;;4785619;30;20494;-71
2022/09/20 07:04:03;;;;;;;2.47;0.90;;;;;;;;;;4785911;29;20046;-71
2022/09/20 07:06:30;;;;;;;4.32;1.08;;;;;;;;;;4785583;29;20031;-71
2022/09/20 07:08:56;;;;;;;4.25;1.10;;;;;;;;;;4785825;29;20607;-74
2022/09/20 07:11:22;;;;;;;4.80;1.10;;;;;;;;;;4782306;29;20028;-73
2022/09/20 07:13:53;;;;;;;9.93;1.40;;;;;;;;;;4768229;30;20054;-73
2022/09/20 07:16:19;;;;;;;7.00;1.60;;;;;;;;;;4768036;30;20409;-73
2022/09/20 07:18:46;;;;;;;6.82;1.38;;;;;;;;;;4770722;30;20034;-73
2022/09/20 07:21:13;;;;;;;11.35;1.67;;;;;;;;;;4783711;29;20956;-73
2022/09/20 07:23:40;;;;;;;11.73;1.20;;;;;;;;;;4788048;30;20035;-73
2022/09/20 07:26:07;;;;;;;5.60;1.95;;;;;;;;;;4787482;29;20520;-73
2022/09/20 07:28:34;;;;;;;10.27;1.60;;;;;;;;;;4787096;30;20037;-73
2022/09/20 07:31:01;;;;;;;10.02;1.63;;;;;;;;;;4786855;30;20033;-71
2022/09/20 07:33:27;;;;;;;8.35;1.65;;;;;;;;;;4788269;30;20027;-72
2022/09/20 07:35:54;;;;;;;8.88;1.92;;;;;;;;;;4789700;29;20035;-71
2022/09/20 07:38:21;;;;;;;7.78;1.58;;;;;;;;;;4787328;30;20489;-71
2022/09/20 07:40:58;;;;;;;9.57;1.75;;;;;;;;;;4787370;30;20054;-71
2022/09/20 07:43:25;;;;;;;14.32;1.90;;;;;;;;;;4787892;29;20515;-73
2022/09/20 07:45:54;;;;;;;7.07;1.30;;;;;;;;;;4787575;30;20422;-71
2022/09/20 07:48:24;;;;;;;11.52;1.60;;;;;;;;;;4788094;30;20035;-71
2022/09/20 07:50:52;;;;;;;9.55;1.70;;;;;;;;;;4787667;30;20038;-73
2022/09/20 07:53:18;;;;;;;8.07;1.85;;;;;;;;;;4787558;29;20050;-71
2022/09/20 07:55:55;;;;;;;7.60;1.80;;;;;;;;;;4787225;29;20023;-72
2022/09/20 07:58:22;;;;;;;8.18;1.73;;;;;;;;;;4787663;30;20030;-72
2022/09/20 08:01:01;;;;;;;5.13;1.58;;;;;;;;;;4787241;30;20413;-72
2022/09/20 08:03:32;;;;;;;4.80;1.60;;;;;;;;;;4787266;29;20395;-72
2022/09/20 08:06:02;;;;;;;10.35;1.75;;;;;;;;;;4785191;29;20034;-72
2022/09/20 08:08:31;;;;;;;6.32;2.13;;;;;;;;;;4786322;30;20045;-72
2022/09/20 08:11:08;;;;;;;8.93;1.70;;;;;;;;;;4770305;30;20039;-72
2022/09/20 08:13:37;;;;;;;4.90;1.60;;;;;;;;;;4787284;30;20059;-72
2022/09/20 08:16:06;;;;;;;3.15;1.25;;;;;;;;;;4786840;30;20060;-72
2022/09/20 08:18:33;;;;;;;4.28;1.13;;;;;;;;;;4786952;29;20494;-72
2022/09/20 08:21:06;;;;;;;4.65;1.30;;;;;;;;;;4787064;29;20401;-72
2022/09/20 08:23:37;;;;;;;3.17;1.20;;;;;;;;;;4786869;30;20834;-71
2022/09/20 08:26:04;;;;;;;7.22;1.45;;;;;;;;;;4787037;30;20034;-72
2022/09/20 08:28:32;;;;;;;1.70;1.20;;;;;;;;;;4785939;29;20035;-73
2022/09/20 08:31:02;;;;;;;3.05;1.40;;;;;;;;;;4786050;29;20522;-73
2022/09/20 08:33:28;;;;;;;;;;;;;;;;;;4787569;29;20046;-72
2022/09/20 08:35:55;;;;;;;2.40;1.38;;;;;;;;;;4786239;29;19921;-73
2022/09/20 08:38:25;;;;;;;3.70;1.67;;;;;;;;;;4786324;30;20026;-72
2022/09/20 08:40:55;;;;;;;3.58;1.30;;;;;;;;;;4785819;29;20023;-72
2022/09/20 08:43:21;;;;;;;5.57;1.55;;;;;;;;;;4786195;29;20413;-73
2022/09/20 08:45:48;;;;;;;4.40;1.27;;;;;;;;;;4786194;29;20047;-72
2022/09/20 08:48:16;;;;;;;5.20;1.35;;;;;;;;;;4786971;30;20050;-73
2022/09/20 08:50:42;;;;;;;1.92;1.13;;;;;;;;;;4786369;29;20019;-72
2022/09/20 08:53:12;;;;;;;5.90;1.60;;;;;;;;;;4785877;30;20028;-72
2022/09/20 08:55:42;;;;;;;4.15;1.45;;;;;;;;;;4786695;30;20397;-72
2022/09/20 08:58:08;;;;;;;;;;;;;;;;;;4785413;29;20042;-73
2022/09/20 09:00:35;;;;;;;2.88;1.38;;;;;;;;;;4786363;30;19940;-72
2022/09/20 09:03:20;;;;;;;5.00;1.42;;;;;;;;;;4786486;29;20036;-73
2022/09/20 09:05:49;;;;;;;5.07;1.17;;;;;;;;;;4786421;29;20048;-72
2022/09/20 09:08:15;;;;;;;2.65;1.40;;;;;;;;;;4786277;30;20045;-73
2022/09/20 09:10:43;;;;;;;4.47;1.10;;;;;;;;;;4786256;30;20016;-73
2022/09/20 09:13:14;;;;;;;3.78;1.10;;;;;;;;;;4784955;29;20058;-73
2022/09/20 09:15:42;;;;;;;4.05;1.38;;;;;;;;;;4785998;29;20039;-71
2022/09/20 09:18:11;;;;;;;2.60;1.38;;;;;;;;;;4795836;29;20034;-72
2022/09/20 09:20:45;;;;;;;3.33;1.23;;;;;;;;;;4786851;29;20039;-73
2022/09/20 09:23:26;;;;;;;4.00;1.27;;;;;;;;;;4785803;29;20043;-73
2022/09/20 09:25:54;;;;;;;2.63;0.98;;;;;;;;;;4784727;29;20050;-73
2022/09/20 09:28:25;;;;;;;5.55;1.35;;;;;;;;;;4785658;29;20506;-72
2022/09/20 09:30:51;;;;;;;2.92;1.27;;;;;;;;;;4785948;30;20474;-73
2022/09/20 09:33:28;;;;;;;3.97;0.93;;;;;;;;;;4786090;30;20027;-71
2022/09/20 09:35:59;;;;;;;3.50;0.80;;;;;;;;;;4783259;30;20039;-73
2022/09/20 09:38:30;;;;;;;2.35;0.80;;;;;;;;;;4786395;29;20485;-72
2022/09/20 09:40:57;;;;;;;4.32;0.80;;;;;;;;;;4783238;29;20036;-72
2022/09/20 09:43:29;;;;;;;4.05;1.20;;;;;;;;;;4785325;29;20047;-72
2022/09/20 09:45:56;;;;;;;4.65;0.90;;;;;;;;;;4785799;29;20512;-73
2022/09/20 09:48:24;;;;;;;3.00;1.13;;;;;;;;;;4784813;29;20080;-72
2022/09/20 09:51:06;;;;;;;1.80;0.93;;;;;;;;;;4786950;29;20035;-73
2022/09/20 09:53:35;;;;;;;2.85;1.10;;;;;;;;;;4793907;29;20042;-72
2022/09/20 09:56:01;;;;;;;3.83;1.10;;;;;;;;;;4785666;29;20019;-72
2022/09/20 09:58:40;;;;;;;7.35;1.10;;;;;;;;;;4785081;29;20027;-72
2022/09/20 10:01:08;;;;;;;3.65;1.05;;;;;;;;;;4792889;29;20033;-73
2022/09/20 10:03:49;;;;;;;4.65;0.90;;;;;;;;;;4791518;29;20039;-72
2022/09/20 10:06:22;;;;;;;2.92;1.00;;;;;;;;;;4785395;30;20046;-71
2022/09/20 10:09:05;;;;;;;1.95;0.85;;;;;;;;;;4785429;29;20023;-72
2022/09/20 10:11:40;;;;;;;1.67;0.82;;;;;;;;;;4789280;29;20031;-72
2022/09/20 10:14:25;;;;;;;3.55;0.95;;;;;;;;;;4785829;29;20057;-72
2022/09/20 10:16:54;;;;;;;2.60;1.00;;;;;;;;;;4785682;30;20039;-72
2022/09/20 10:19:27;;;;;;;2.15;1.00;;;;;;;;;;4785118;30;20060;-72
2022/09/20 10:21:55;;;;;;;5.50;1.13;;;;;;;;;;4767279;30;20036;-72
2022/09/20 10:24:39;;;;;;;6.57;0.90;;;;;;;;;;4767927;30;20035;-72
2022/09/20 10:27:12;;;;;;;1.20;0.75;;;;;;;;;;4767986;30;20023;-73
2022/09/20 10:29:57;;;;;;;4.63;0.95;;;;;;;;;;4767694;30;20040;-72
2022/09/20 10:32:32;;;;;;;1.85;0.93;;;;;;;;;;4773462;30;20043;-72
2022/09/20 10:35:17;;;;;;;3.72;0.68;;;;;;;;;;4785303;30;20037;-73
2022/09/20 10:37:54;;;;;;;3.80;0.95;;;;;;;;;;4785632;30;20076;-72
2022/09/20 10:43:29;;;;;;;8.07;1.05;;;;;;;;;;4785604;30;20049;-72
2022/09/20 10:46:05;;;;;;;3.92;0.80;;;;;;;;;;4785691;29;20034;-73
2022/09/20 10:48:32;;;;;;;2.08;0.80;;;;;;;;;;4784679;30;20039;-72
2022/09/20 10:51:01;;;;;;;7.95;0.90;;;;;;;;;;4790086;29;20382;-72
2022/09/20 10:53:28;;;;;;;7.82;1.02;;;;;;;;;;4795156;29;20045;-72
2022/09/20 10:56:07;;;;;;;6.50;1.20;;;;;;;;;;4797494;29;20038;-72
2022/09/20 10:58:45;;;;;;;3.22;0.80;;;;;;;;;;4796941;29;20030;-72
2022/09/20 11:01:16;;;;;;;4.85;1.20;;;;;;;;;;4795176;29;20058;-72
2022/09/20 11:04:01;;;;;;;2.67;0.65;;;;;;;;;;4796201;29;20038;-72
2022/09/20 11:06:56;;;;;;;3.50;0.77;;;;;;;;;;4800361;29;20027;-72
2022/09/20 11:09:26;;;;;;;3.58;0.70;;;;;;;;;;4786668;30;20057;-72
2022/09/20 11:12:01;;;;;;;4.90;0.73;;;;;;;;;;4776154;30;20036;-72
2022/09/20 11:14:32;;;;;;;3.70;0.75;;;;;;;;;;4753293;30;20051;-72
2022/09/20 11:17:08;;;;;;;3.17;0.90;;;;;;;;;;4768699;30;20072;-71
2022/09/20 11:19:34;;;;;;;4.80;0.93;;;;;;;;;;4767896;30;20046;-72
2022/09/20 11:22:12;;;;;;;4.82;0.80;;;;;;;;;;4768482;30;20048;-71
2022/09/20 11:24:38;;;;;;;2.67;0.90;;;;;;;;;;4768233;30;20040;-72
2022/09/20 11:27:07;;;;;;;1.95;0.85;;;;;;;;;;4768458;30;20051;-72
2022/09/20 11:29:40;;;;;;;1.73;0.70;;;;;;;;;;4768136;30;20418;-72
2022/09/20 11:32:14;;;;;;;5.25;1.23;;;;;;;;;;4768161;30;20044;-71
2022/09/20 11:35:07;;;;;;;3.60;0.80;;;;;;;;;;4768336;30;20036;-72
2022/09/20 11:37:35;;;;;;;5.03;0.80;;;;;;;;;;4765374;30;20219;-73
2022/09/20 11:40:06;;;;;;;10.80;1.10;;;;;;;;;;4766887;30;20148;-73
2022/09/20 11:42:34;;;;;;;3.25;0.80;;;;;;;;;;4764984;30;20056;-72
2022/09/20 11:45:01;;;;;;;7.05;1.00;;;;;;;;;;4771452;30;20042;-73
2022/09/20 11:47:36;;;;;;;7.97;1.20;;;;;;;;;;4787771;29;20046;-73
2022/09/20 11:50:11;;;;;;;4.60;0.90;;;;;;;;;;4787860;30;20043;-73
2022/09/20 11:52:38;;;;;;;8.77;0.90;;;;;;;;;;4787949;29;20685;-72
2022/09/20 11:55:22;;;;;;;4.75;0.80;;;;;;;;;;4787991;30;20096;-72
2022/09/20 11:58:09;;;;;;;9.57;1.25;;;;;;;;;;4788323;30;20027;-72
2022/09/20 12:00:37;;;;;;;6.50;1.02;;;;;;;;;;4770132;30;20036;-72
2022/09/20 12:03:06;;;;;;;7.13;1.05;;;;;;;;;;4768283;30;20051;-74
2022/09/20 12:05:37;;;;;;;4.30;1.10;;;;;;;;;;4771256;30;20027;-77
2022/09/20 12:08:07;;;;;;;4.45;1.38;;;;;;;;;;4770979;30;20039;-74
2022/09/20 12:10:38;;;;;;;7.05;1.20;;;;;;;;;;4770957;30;20016;-73
2022/09/20 12:13:05;;;;;;;3.00;1.00;;;;;;;;;;4787265;29;20578;-74
2022/09/20 12:15:35;;;;;;;7.00;0.90;;;;;;;;;;4784461;30;20031;-74
2022/09/20 12:18:07;;;;;;;2.88;1.00;;;;;;;;;;4788672;30;20034;-74
2022/09/20 12:20:43;;;;;;;4.18;0.98;;;;;;;;;;4788156;30;20037;-74
2022/09/20 12:23:30;;;;;;;3.42;1.05;;;;;;;;;;4788279;29;20046;-74
2022/09/20 12:26:04;;;;;;;1.40;1.10;;;;;;;;;;4785725;30;20117;-72
2022/09/20 12:28:35;;;;;;;4.32;1.05;;;;;;;;;;4787381;30;20493;-74
2022/09/20 12:31:20;;;;;;;3.67;1.15;;;;;;;;;;4787459;30;20027;-74
2022/09/20 12:33:58;;;;;;;1.88;1.10;;;;;;;;;;4786577;30;20381;-74
2022/09/20 12:36:25;;;;;;;3.75;1.10;;;;;;;;;;4788031;30;20039;-74
2022/09/20 12:38:58;;;;;;;4.43;1.15;;;;;;;;;;4787958;30;20031;-73
2022/09/20 12:41:25;;;;;;;5.43;1.10;;;;;;;;;;4788404;30;20043;-73
2022/09/20 12:43:58;;;;;;;5.63;1.33;;;;;;;;;;4788122;29;20035;-73
2022/09/20 12:46:29;;;;;;;5.70;1.17;;;;;;;;;;4787128;30;20084;-73
2022/09/20 12:52:49;;;;;;;2.70;1.02;;;;;;;;;;4787889;30;20032;-72
2022/09/20 12:54:52;;;;;;;2.08;1.00;;;;;;;;;;4787852;30;20385;-72
2022/09/20 12:57:26;;;;;;;3.78;1.20;;;;;;;;;;4787925;29;20039;-73
2022/09/20 12:59:55;;;;;;;4.57;0.90;;;;;;;;;;4781909;30;20046;-74
2022/09/20 13:02:48;;;;;;;2.75;1.20;;;;;;;;;;4784902;29;20027;-70
2022/09/20 13:05:31;;;;;;;5.25;1.10;;;;;;;;;;4785541;30;20084;-72
2022/09/20 13:08:01;;;;;;;4.32;0.90;;;;;;;;;;4787131;29;20039;-72
2022/09/20 13:10:33;;;;;;;0.88;0.88;;;;;;;;;;4786604;30;20031;-72
2022/09/20 13:13:02;;;;;;;1.52;0.88;;;;;;;;;;4768399;30;20540;-75
2022/09/20 13:15:30;;;;;;;0.70;0.70;;;;;;;;;;4767879;30;20066;-71
2022/09/20 13:17:58;;;;;;;0.65;0.65;;;;;;;;;;4773058;30;20035;-73
2022/09/20 13:20:29;;;;;;;3.10;1.00;;;;;;;;;;4786459;29;20038;-73
2022/09/20 13:22:56;;;;;;;7.03;1.00;;;;;;;;;;4786407;29;20032;-73
2022/09/20 13:25:24;;;;;;;2.08;0.90;;;;;;;;;;4786624;29;20072;-74
2022/09/20 13:28:01;;;;;;;1.08;0.98;;;;;;;;;;4786025;30;20024;-73
2022/09/20 13:30:31;;;;;;;17.25;1.33;;;;;;;;;;4785753;30;20389;-73
2022/09/20 13:33:14;;;;;;;1.40;1.00;;;;;;;;;;4785838;30;20050;-73
2022/09/20 13:35:41;;;;;;;9.48;1.35;;;;;;;;;;4786020;29;20035;-74
2022/09/20 13:38:09;;;;;;;0.80;0.80;;;;;;;;;;4786217;30;20073;-74
2022/09/20 13:40:37;;;;;;;3.50;1.13;;;;;;;;;;4788490;29;20039;-74
2022/09/20 13:43:20;;;;;;;4.75;1.05;;;;;;;;;;4785688;29;20051;-75
2022/09/20 13:45:51;;;;;;;2.30;1.10;;;;;;;;;;4786118;30;20023;-75
2022/09/20 13:48:17;;;;;;;2.75;0.90;;;;;;;;;;4785612;30;20035;-76
2022/09/20 13:50:43;;;;;;;1.58;0.90;;;;;;;;;;4786207;30;20032;-75
2022/09/20 13:53:17;;;;;;;6.30;1.50;;;;;;;;;;4783967;29;20055;-67
2022/09/20 13:55:44;;;;;;;6.43;1.48;;;;;;;;;;4785729;30;20062;-67
2022/09/20 13:58:29;;;;;;;5.47;0.88;;;;;;;;;;4785622;30;20045;-67
2022/09/20 14:00:55;;;;;;;7.13;0.95;;;;;;;;;;4785674;30;20433;-68
2022/09/20 14:03:22;;;;;;;2.38;0.70;;;;;;;;;;4785874;30;20031;-67
2022/09/20 14:05:54;;;;;;;6.15;0.90;;;;;;;;;;4786021;30;20031;-71
2022/09/20 14:08:29;;;;;;;3.08;0.90;;;;;;;;;;4785697;29;20037;-67
2022/09/20 14:11:10;;;;;;;3.90;1.05;;;;;;;;;;4785557;30;20039;-66
2022/09/20 14:13:41;;;;;;;1.38;0.95;;;;;;;;;;4785040;30;20067;-67
2022/09/20 14:16:08;;;;;;;3.20;0.98;;;;;;;;;;4785918;29;20037;-68
2022/09/20 14:18:36;;;;;;;0.85;0.80;;;;;;;;;;4785757;30;20050;-67
2022/09/20 14:21:03;;;;;;;3.97;1.00;;;;;;;;;;4785487;30;20035;-67
2022/09/20 14:23:30;;;;;;;2.45;1.10;;;;;;;;;;4785576;29;20059;-67
2022/09/20 14:26:22;;;;;;;0.93;0.80;;;;;;;;;;4785491;29;20027;-67
2022/09/20 14:28:48;;;;;;;1.83;0.73;;;;;;;;;;4789847;29;20446;-67
2022/09/20 14:31:20;;;;;;;4.63;1.02;;;;;;;;;;4788832;30;20389;-67
2022/09/20 14:33:50;;;;;;;4.90;0.88;;;;;;;;;;4789144;29;20401;-70
2022/09/20 14:36:20;;;;;;;1.10;0.80;;;;;;;;;;4789416;30;20024;-70
2022/09/20 14:38:48;;;;;;;5.63;1.17;;;;;;;;;;4789510;30;20058;-70
2022/09/20 14:41:23;;;;;;;7.13;0.80;;;;;;;;;;4788695;29;20035;-69
2022/09/20 14:43:54;;;;;;;5.05;0.88;;;;;;;;;;4787878;30;20545;-70
2022/09/20 14:46:28;;;;;;;5.10;0.80;;;;;;;;;;4788925;30;20027;-69
2022/09/20 14:48:54;;;;;;;4.63;0.80;;;;;;;;;;4788701;29;20039;-69
2022/09/20 14:51:24;;;;;;;1.55;0.80;;;;;;;;;;4788395;30;20038;-70
2022/09/20 14:53:51;;;;;;;6.20;0.93;;;;;;;;;;4789132;29;20041;-70
2022/09/20 14:56:56;;;;;;;6.30;1.17;;;;;;;;;;4788306;30;20042;-70
2022/09/20 14:59:26;;;;;;;1.00;0.70;;;;;;;;;;4783949;30;20072;-69
2022/09/20 15:01:55;;;;;;;1.67;0.80;;;;;;;;;;4755661;30;20165;-70
2022/09/20 15:04:22;;;;;;;2.83;0.85;;;;;;;;;;4786791;30;20035;-70
2022/09/20 15:06:49;;;;;;;1.23;0.90;;;;;;;;;;4779823;30;20561;-70
2022/09/20 15:09:17;;;;;;;2.58;1.00;;;;;;;;;;4768573;30;20120;-69
2022/09/20 15:11:43;;;;;;;1.52;0.70;;;;;;;;;;4768815;30;20040;-70
2022/09/20 15:14:10;;;;;;;2.60;1.00;;;;;;;;;;4768921;30;20056;-70
2022/09/20 15:16:36;;;;;;;2.90;0.80;;;;;;;;;;4768684;30;20046;-70
2022/09/20 15:19:06;;;;;;;4.10;1.02;;;;;;;;;;4776340;30;20059;-70
2022/09/20 15:21:33;;;;;;;1.55;0.82;;;;;;;;;;4786793;30;20051;-70
2022/09/20 15:23:59;;;;;;;4.18;0.88;;;;;;;;;;4786495;30;20043;-70
2022/09/20 15:26:25;;;;;;;1.23;0.70;;;;;;;;;;4787347;30;20053;-70
2022/09/20 15:28:52;;;;;;;5.22;1.05;;;;;;;;;;4773677;30;20033;-69
2022/09/20 15:31:18;;;;;;;7.75;1.10;;;;;;;;;;4751974;30;20043;-70